createdAt,value
2018-11-13T00:00:37.256Z,27.70
2018-11-13T00:01:15.916Z,27.70
2018-11-13T00:01:54.084Z,27.70
2018-11-13T00:02:33.582Z,27.70
2018-11-13T00:03:12.865Z,27.70
2018-11-13T00:03:51.143Z,27.80
2018-11-13T00:04:29.635Z,27.70
2018-11-13T00:05:08.723Z,27.70
2018-11-13T00:05:48.478Z,27.80
2018-11-13T00:06:30.691Z,27.80
2018-11-13T00:07:09.161Z,27.80
2018-11-13T00:07:47.454Z,27.80
2018-11-13T00:08:25.659Z,27.80
2018-11-13T00:09:05.994Z,27.80
2018-11-13T00:09:44.402Z,27.80
2018-11-13T00:10:22.598Z,27.80
2018-11-13T00:11:01.096Z,27.80
2018-11-13T00:11:40.310Z,27.80
2018-11-13T00:12:19.775Z,27.80
2018-11-13T00:12:58.024Z,27.80
2018-11-13T00:13:37.258Z,27.80
2018-11-13T00:14:15.407Z,27.80
2018-11-13T00:14:55.395Z,27.80
2018-11-13T00:15:33.721Z,27.80
2018-11-13T00:16:12.039Z,27.80
2018-11-13T00:16:50.423Z,27.80
2018-11-13T00:17:28.408Z,27.80
2018-11-13T00:18:06.763Z,27.90
2018-11-13T00:18:45.421Z,27.80
2018-11-13T00:19:23.926Z,27.80
2018-11-13T00:20:02.218Z,27.80
2018-11-13T00:20:40.090Z,27.90
2018-11-13T00:21:18.569Z,27.80
2018-11-13T00:21:56.568Z,27.80
2018-11-13T00:22:35.100Z,27.90
2018-11-13T00:23:13.520Z,27.90
2018-11-13T00:23:53.102Z,27.80
2018-11-13T00:24:33.524Z,27.80
2018-11-13T00:25:14.349Z,27.90
2018-11-13T00:25:52.910Z,27.90
2018-11-13T00:26:31.324Z,27.90
2018-11-13T00:27:09.480Z,27.80
2018-11-13T00:27:47.810Z,27.80
2018-11-13T00:28:26.355Z,27.90
2018-11-13T00:29:05.107Z,27.90
2018-11-13T00:29:44.110Z,27.80
2018-11-13T00:30:24.511Z,27.80
2018-11-13T00:31:03.162Z,27.80
2018-11-13T00:31:41.307Z,27.80
2018-11-13T00:32:21.022Z,27.80
2018-11-13T00:32:59.465Z,27.80
2018-11-13T00:33:38.756Z,27.80
2018-11-13T00:34:16.829Z,27.80
2018-11-13T00:34:57.054Z,27.80
2018-11-13T00:35:35.699Z,27.80
2018-11-13T00:36:14.896Z,27.70
2018-11-13T00:36:53.092Z,27.70
2018-11-13T00:37:31.232Z,27.60
2018-11-13T00:38:09.937Z,27.60
2018-11-13T00:38:48.075Z,27.60
2018-11-13T00:39:26.493Z,27.60
2018-11-13T00:40:05.095Z,27.60
2018-11-13T00:40:43.850Z,27.60
2018-11-13T00:41:22.301Z,27.60
2018-11-13T00:42:01.186Z,27.60
2018-11-13T00:42:40.398Z,27.60
2018-11-13T00:43:18.545Z,27.60
2018-11-13T00:43:56.883Z,27.60
2018-11-13T00:44:35.043Z,27.70
2018-11-13T00:45:12.967Z,27.70
2018-11-13T00:45:51.244Z,27.70
2018-11-13T00:46:29.783Z,27.70
2018-11-13T00:47:08.213Z,27.80
2018-11-13T00:47:46.685Z,27.80
2018-11-13T00:48:25.619Z,27.80
2018-11-13T00:49:06.282Z,27.90
2018-11-13T00:49:44.569Z,28.00
2018-11-13T00:50:23.980Z,28.00
2018-11-13T00:51:02.223Z,28.00
2018-11-13T00:51:40.933Z,27.90
2018-11-13T00:52:19.403Z,27.90
2018-11-13T00:52:57.305Z,27.90
2018-11-13T00:53:35.510Z,27.90
2018-11-13T00:54:13.946Z,28.00
2018-11-13T00:54:52.070Z,28.00
2018-11-13T00:55:30.782Z,28.10
2018-11-13T00:56:09.219Z,28.10
2018-11-13T00:56:47.776Z,28.20
2018-11-13T00:57:25.689Z,28.30
2018-11-13T00:58:04.224Z,28.30
2018-11-13T00:58:42.427Z,28.40
2018-11-13T00:59:20.378Z,28.40
2018-11-13T01:00:01.525Z,28.40
2018-11-13T01:00:39.441Z,28.40
2018-11-13T01:01:17.356Z,28.30
2018-11-13T01:01:55.295Z,28.30
2018-11-13T01:02:33.142Z,28.30
2018-11-13T01:03:12.055Z,28.30
2018-11-13T01:03:50.167Z,28.30
2018-11-13T01:04:28.059Z,28.30
2018-11-13T01:05:06.006Z,28.20
2018-11-13T01:05:44.537Z,28.20
2018-11-13T01:06:22.698Z,28.20
2018-11-13T01:07:00.573Z,28.20
2018-11-13T01:07:38.439Z,28.20
2018-11-13T01:08:16.364Z,28.20
2018-11-13T01:08:54.214Z,28.20
2018-11-13T01:09:34.270Z,28.20
2018-11-13T01:10:13.234Z,28.20
2018-11-13T01:10:51.966Z,28.20
2018-11-13T01:11:29.810Z,28.20
2018-11-13T01:12:07.878Z,28.20
2018-11-13T01:12:46.738Z,28.20
2018-11-13T01:13:24.710Z,28.20
2018-11-13T01:14:02.727Z,28.20
2018-11-13T01:14:40.555Z,28.20
2018-11-13T01:15:19.841Z,28.20
2018-11-13T01:15:57.742Z,28.20
2018-11-13T01:16:35.699Z,28.20
2018-11-13T01:17:14.155Z,28.20
2018-11-13T01:17:52.598Z,28.20
2018-11-13T01:18:30.528Z,28.20
2018-11-13T01:19:08.432Z,28.20
2018-11-13T01:19:46.339Z,28.20
2018-11-13T01:20:24.487Z,28.20
2018-11-13T01:21:02.350Z,28.20
2018-11-13T01:21:40.334Z,28.20
2018-11-13T01:22:18.314Z,28.20
2018-11-13T01:22:56.124Z,28.20
2018-11-13T01:23:34.075Z,28.20
2018-11-13T01:24:12.055Z,28.30
2018-11-13T01:24:50.213Z,28.30
2018-11-13T01:25:28.576Z,28.30
2018-11-13T01:26:06.661Z,28.30
2018-11-13T01:26:45.243Z,28.30
2018-11-13T01:27:23.330Z,28.30
2018-11-13T01:28:01.729Z,28.30
2018-11-13T01:28:41.358Z,28.30
2018-11-13T01:29:19.320Z,28.30
2018-11-13T01:29:57.503Z,28.30
2018-11-13T01:30:35.734Z,28.30
2018-11-13T01:31:13.825Z,28.30
2018-11-13T01:31:51.956Z,28.30
2018-11-13T01:32:31.241Z,28.30
2018-11-13T01:33:09.158Z,28.40
2018-11-13T01:33:46.979Z,28.40
2018-11-13T01:34:24.932Z,28.40
2018-11-13T01:35:03.095Z,28.40
2018-11-13T01:35:41.783Z,28.40
2018-11-13T01:36:19.621Z,28.40
2018-11-13T01:36:57.812Z,28.40
2018-11-13T01:37:35.696Z,28.40
2018-11-13T01:38:13.644Z,28.40
2018-11-13T01:38:51.531Z,28.40
2018-11-13T01:39:29.556Z,28.40
2018-11-13T01:40:10.774Z,28.50
2018-11-13T01:40:48.912Z,28.50
2018-11-13T01:41:26.750Z,28.50
2018-11-13T01:42:04.618Z,28.50
2018-11-13T01:42:43.184Z,28.50
2018-11-13T01:43:21.178Z,28.50
2018-11-13T01:43:59.083Z,28.50
2018-11-13T01:44:37.131Z,28.60
2018-11-13T01:45:18.082Z,28.60
2018-11-13T01:45:55.956Z,28.50
2018-11-13T01:46:33.871Z,28.60
2018-11-13T01:47:11.801Z,28.60
2018-11-13T01:47:49.718Z,28.60
2018-11-13T01:48:28.072Z,28.60
2018-11-13T01:49:06.034Z,28.60
2018-11-13T01:49:43.967Z,28.60
2018-11-13T01:50:21.865Z,28.60
2018-11-13T01:50:59.818Z,28.60
2018-11-13T01:51:37.793Z,28.60
2018-11-13T01:52:15.633Z,28.60
2018-11-13T01:52:53.695Z,28.60
2018-11-13T01:53:31.692Z,28.60
2018-11-13T01:54:09.616Z,28.60
2018-11-13T01:54:47.462Z,28.60
2018-11-13T01:55:26.239Z,28.60
2018-11-13T01:56:04.111Z,28.60
2018-11-13T01:56:42.079Z,28.60
2018-11-13T01:57:20.066Z,28.60
2018-11-13T01:57:58.226Z,28.60
2018-11-13T01:58:36.328Z,28.60
2018-11-13T01:59:14.324Z,28.60
2018-11-13T01:59:52.226Z,28.70
2018-11-13T02:00:30.397Z,28.70
2018-11-13T02:01:08.242Z,28.60
2018-11-13T02:01:46.170Z,28.70
2018-11-13T02:02:24.132Z,28.70
2018-11-13T02:03:02.047Z,28.70
2018-11-13T02:03:39.850Z,28.70
2018-11-13T02:04:17.626Z,28.70
2018-11-13T02:04:55.753Z,28.70
2018-11-13T02:05:33.691Z,28.70
2018-11-13T02:06:11.551Z,28.70
2018-11-13T02:06:49.446Z,28.70
2018-11-13T02:07:27.660Z,28.70
2018-11-13T02:08:05.757Z,28.70
2018-11-13T02:08:43.809Z,28.70
2018-11-13T02:09:21.789Z,28.70
2018-11-13T02:09:59.687Z,28.80
2018-11-13T02:10:37.449Z,28.80
2018-11-13T02:11:15.361Z,28.70
2018-11-13T02:11:54.267Z,28.80
2018-11-13T02:12:32.130Z,28.80
2018-11-13T02:13:10.494Z,28.80
2018-11-13T02:13:48.464Z,28.80
2018-11-13T02:14:27.709Z,28.80
2018-11-13T02:15:05.788Z,28.80
2018-11-13T02:15:43.756Z,28.80
2018-11-13T02:16:22.043Z,28.80
2018-11-13T02:16:59.906Z,28.80
2018-11-13T02:17:37.741Z,28.80
2018-11-13T02:18:15.763Z,28.90
2018-11-13T02:18:53.589Z,28.80
2018-11-13T02:19:31.454Z,28.80
2018-11-13T02:20:11.709Z,28.80
2018-11-13T02:20:49.614Z,28.80
2018-11-13T02:21:27.563Z,28.90
2018-11-13T02:22:05.595Z,28.90
2018-11-13T02:22:43.855Z,28.90
2018-11-13T02:23:21.738Z,28.90
2018-11-13T02:23:59.769Z,28.90
2018-11-13T02:24:37.659Z,28.90
2018-11-13T02:25:17.200Z,28.90
2018-11-13T02:25:55.127Z,28.90
2018-11-13T02:26:33.294Z,28.90
2018-11-13T02:27:11.510Z,28.90
2018-11-13T02:27:49.684Z,28.90
2018-11-13T02:28:27.630Z,28.90
2018-11-13T02:29:05.540Z,28.90
2018-11-13T02:29:43.544Z,28.90
2018-11-13T02:30:22.893Z,28.90
2018-11-13T02:31:03.096Z,28.90
2018-11-13T02:31:41.239Z,28.90
2018-11-13T02:32:19.183Z,28.90
2018-11-13T02:32:57.099Z,28.90
2018-11-13T02:33:35.243Z,28.90
2018-11-13T02:34:13.174Z,28.90
2018-11-13T02:34:51.550Z,29.00
2018-11-13T02:35:29.460Z,29.00
2018-11-13T02:36:07.417Z,29.00
2018-11-13T02:36:45.300Z,28.90
2018-11-13T02:37:23.136Z,29.00
2018-11-13T02:38:01.070Z,29.00
2018-11-13T02:38:39.032Z,29.00
2018-11-13T02:39:17.088Z,29.00
2018-11-13T02:39:55.017Z,29.00
2018-11-13T02:40:32.882Z,29.00
2018-11-13T02:41:10.800Z,29.00
2018-11-13T02:41:48.782Z,29.00
2018-11-13T02:42:27.496Z,29.00
2018-11-13T02:43:05.420Z,29.00
2018-11-13T02:43:43.215Z,29.00
2018-11-13T02:44:21.286Z,29.00
2018-11-13T02:44:59.331Z,29.00
2018-11-13T02:45:37.176Z,29.00
2018-11-13T02:46:15.531Z,29.10
2018-11-13T02:46:53.578Z,29.00
2018-11-13T02:47:31.478Z,29.00
2018-11-13T02:48:09.358Z,29.00
2018-11-13T02:48:47.242Z,29.10
2018-11-13T02:49:25.808Z,29.00
2018-11-13T02:50:05.543Z,29.00
2018-11-13T02:50:43.392Z,29.00
2018-11-13T02:51:21.225Z,29.10
2018-11-13T02:51:59.348Z,29.10
2018-11-13T02:52:37.151Z,29.10
2018-11-13T02:53:15.059Z,29.00
2018-11-13T02:53:52.981Z,29.10
2018-11-13T02:54:30.943Z,29.10
2018-11-13T02:55:09.198Z,29.10
2018-11-13T02:55:47.059Z,29.10
2018-11-13T02:56:25.349Z,29.10
2018-11-13T02:57:03.236Z,29.10
2018-11-13T02:57:41.275Z,29.10
2018-11-13T02:58:19.236Z,29.10
2018-11-13T02:58:57.312Z,29.10
2018-11-13T02:59:35.434Z,29.10
2018-11-13T03:00:20.298Z,29.10
2018-11-13T03:00:58.284Z,29.10
2018-11-13T03:01:36.339Z,29.10
2018-11-13T03:02:14.293Z,29.10
2018-11-13T03:02:53.355Z,29.10
2018-11-13T03:03:31.261Z,29.10
2018-11-13T03:04:09.114Z,29.10
2018-11-13T03:04:47.012Z,29.10
2018-11-13T03:05:24.919Z,29.20
2018-11-13T03:06:02.876Z,29.20
2018-11-13T03:06:40.783Z,29.20
2018-11-13T03:07:18.698Z,29.20
2018-11-13T03:07:56.617Z,29.20
2018-11-13T03:08:34.487Z,29.20
2018-11-13T03:09:12.879Z,29.20
2018-11-13T03:09:50.767Z,29.20
2018-11-13T03:10:28.900Z,29.20
2018-11-13T03:11:06.728Z,29.20
2018-11-13T03:11:44.602Z,29.20
2018-11-13T03:12:22.498Z,29.20
2018-11-13T03:13:00.424Z,29.20
2018-11-13T03:13:39.674Z,29.20
2018-11-13T03:14:17.565Z,29.20
2018-11-13T03:14:55.459Z,29.20
2018-11-13T03:15:33.423Z,29.20
2018-11-13T03:16:11.307Z,29.20
2018-11-13T03:16:49.424Z,29.20
2018-11-13T03:17:27.375Z,29.30
2018-11-13T03:18:05.324Z,29.20
2018-11-13T03:18:43.248Z,29.30
2018-11-13T03:19:21.299Z,29.20
2018-11-13T03:19:59.176Z,29.20
2018-11-13T03:20:37.324Z,29.30
2018-11-13T03:21:15.243Z,29.30
2018-11-13T03:21:54.064Z,29.30
2018-11-13T03:22:32.132Z,29.30
2018-11-13T03:23:10.013Z,29.30
2018-11-13T03:23:47.930Z,29.30
2018-11-13T03:24:25.975Z,29.30
2018-11-13T03:25:04.081Z,29.30
2018-11-13T03:25:41.946Z,29.30
2018-11-13T03:26:20.340Z,29.30
2018-11-13T03:26:58.401Z,29.30
2018-11-13T03:27:36.335Z,29.30
2018-11-13T03:28:15.154Z,29.30
2018-11-13T03:28:53.142Z,29.30
2018-11-13T03:29:32.191Z,29.30
2018-11-13T03:30:14.492Z,29.30
2018-11-13T03:30:53.354Z,29.30
2018-11-13T03:31:31.483Z,29.30
2018-11-13T03:32:09.479Z,29.30
2018-11-13T03:32:47.557Z,29.30
2018-11-13T03:33:25.432Z,29.30
2018-11-13T03:34:03.318Z,29.30
2018-11-13T03:34:41.278Z,29.30
2018-11-13T03:35:20.451Z,29.30
2018-11-13T03:35:58.504Z,29.30
2018-11-13T03:36:36.638Z,29.30
2018-11-13T03:37:14.531Z,29.30
2018-11-13T03:37:52.554Z,29.30
2018-11-13T03:38:30.786Z,29.30
2018-11-13T03:39:11.597Z,29.30
2018-11-13T03:39:49.634Z,29.30
2018-11-13T03:40:27.841Z,29.30
2018-11-13T03:41:05.769Z,29.30
2018-11-13T03:41:43.633Z,29.30
2018-11-13T03:42:21.596Z,29.30
2018-11-13T03:42:59.534Z,29.30
2018-11-13T03:43:37.449Z,29.30
2018-11-13T03:44:15.577Z,29.30
2018-11-13T03:44:53.480Z,29.30
2018-11-13T03:45:31.241Z,29.30
2018-11-13T03:46:09.351Z,29.30
2018-11-13T03:46:47.736Z,29.30
2018-11-13T03:47:25.640Z,29.30
2018-11-13T03:48:03.571Z,29.30
2018-11-13T03:48:41.527Z,29.40
2018-11-13T03:49:19.558Z,29.30
2018-11-13T03:49:57.564Z,29.30
2018-11-13T03:50:35.536Z,29.40
2018-11-13T03:51:13.357Z,29.40
2018-11-13T03:51:51.439Z,29.40
2018-11-13T03:52:29.364Z,29.40
2018-11-13T03:53:07.193Z,29.40
2018-11-13T03:53:45.063Z,29.40
2018-11-13T03:54:22.988Z,29.40
2018-11-13T03:55:01.937Z,29.40
2018-11-13T03:55:39.743Z,29.40
2018-11-13T03:56:17.585Z,29.40
2018-11-13T03:56:55.838Z,29.40
2018-11-13T03:57:33.752Z,29.50
2018-11-13T03:58:11.692Z,29.40
2018-11-13T03:58:49.640Z,29.50
2018-11-13T03:59:27.969Z,29.50
2018-11-13T04:00:06.006Z,29.50
2018-11-13T04:00:44.057Z,29.50
2018-11-13T04:01:21.893Z,29.50
2018-11-13T04:01:59.768Z,29.50
2018-11-13T04:02:37.848Z,29.50
2018-11-13T04:03:16.662Z,29.50
2018-11-13T04:03:54.521Z,29.50
2018-11-13T04:04:32.639Z,29.50
2018-11-13T04:05:13.112Z,29.50
2018-11-13T04:05:51.938Z,29.50
2018-11-13T04:06:30.054Z,29.60
2018-11-13T04:07:08.671Z,29.50
2018-11-13T04:07:50.882Z,29.50
2018-11-13T04:08:28.817Z,29.50
2018-11-13T04:09:07.323Z,29.50
2018-11-13T04:09:45.272Z,29.50
2018-11-13T04:10:24.006Z,29.50
2018-11-13T04:11:01.927Z,29.50
2018-11-13T04:11:40.240Z,29.50
2018-11-13T04:12:18.068Z,29.60
2018-11-13T04:12:55.928Z,29.50
2018-11-13T04:13:33.808Z,29.60
2018-11-13T04:14:13.064Z,29.60
2018-11-13T04:14:50.980Z,29.50
2018-11-13T04:15:29.068Z,29.60
2018-11-13T04:16:07.560Z,29.60
2018-11-13T04:16:45.448Z,29.60
2018-11-13T04:17:23.255Z,29.60
2018-11-13T04:18:01.131Z,29.60
2018-11-13T04:18:39.103Z,29.60
2018-11-13T04:19:17.096Z,29.60
2018-11-13T04:19:54.923Z,29.60
2018-11-13T04:20:32.913Z,29.70
2018-11-13T04:21:10.835Z,29.60
2018-11-13T04:21:58.728Z,29.60
2018-11-13T04:22:36.633Z,29.70
2018-11-13T04:23:14.949Z,29.60
2018-11-13T04:23:53.000Z,29.70
2018-11-13T04:24:30.932Z,29.70
2018-11-13T04:25:10.633Z,29.70
2018-11-13T04:25:48.679Z,29.70
2018-11-13T04:26:26.679Z,29.80
2018-11-13T04:27:04.742Z,29.70
2018-11-13T04:27:43.798Z,29.80
2018-11-13T04:28:21.798Z,29.80
2018-11-13T04:28:59.708Z,29.80
2018-11-13T04:29:37.765Z,29.80
2018-11-13T04:30:17.690Z,29.80
2018-11-13T04:30:55.703Z,29.80
2018-11-13T04:31:33.790Z,29.80
2018-11-13T04:32:11.722Z,29.80
2018-11-13T04:32:49.582Z,29.80
2018-11-13T04:33:27.657Z,29.80
2018-11-13T04:34:05.669Z,29.80
2018-11-13T04:34:43.519Z,29.80
2018-11-13T04:35:21.624Z,29.80
2018-11-13T04:35:59.593Z,29.80
2018-11-13T04:36:37.575Z,29.80
2018-11-13T04:37:15.655Z,29.80
2018-11-13T04:37:53.549Z,29.80
2018-11-13T04:38:31.376Z,29.70
2018-11-13T04:39:10.264Z,29.80
2018-11-13T04:39:48.485Z,29.80
2018-11-13T04:40:27.280Z,29.80
2018-11-13T04:41:05.406Z,29.70
2018-11-13T04:41:43.586Z,29.80
2018-11-13T04:42:21.688Z,29.80
2018-11-13T04:43:00.574Z,29.80
2018-11-13T04:43:38.578Z,29.80
2018-11-13T04:44:16.494Z,29.80
2018-11-13T04:44:54.558Z,29.80
2018-11-13T04:45:32.535Z,29.80
2018-11-13T04:46:10.391Z,29.80
2018-11-13T04:46:48.556Z,29.80
2018-11-13T04:47:26.472Z,29.80
2018-11-13T04:48:04.326Z,29.80
2018-11-13T04:48:42.318Z,29.80
2018-11-13T04:49:20.343Z,29.80
2018-11-13T04:49:58.297Z,29.80
2018-11-13T04:50:37.023Z,29.90
2018-11-13T04:51:15.053Z,29.80
2018-11-13T04:51:52.932Z,29.90
2018-11-13T04:52:30.919Z,29.80
2018-11-13T04:53:09.064Z,29.80
2018-11-13T04:53:46.945Z,29.90
2018-11-13T04:54:24.894Z,29.80
2018-11-13T04:55:02.802Z,29.80
2018-11-13T04:55:40.769Z,29.80
2018-11-13T04:56:18.792Z,29.90
2018-11-13T04:56:56.658Z,29.90
2018-11-13T04:57:34.593Z,29.90
2018-11-13T04:58:12.402Z,29.90
2018-11-13T04:58:51.299Z,29.90
2018-11-13T04:59:29.179Z,29.90
2018-11-13T05:00:08.227Z,29.90
2018-11-13T05:00:46.154Z,29.90
2018-11-13T05:01:24.191Z,29.90
2018-11-13T05:02:02.119Z,29.90
2018-11-13T05:02:41.542Z,30.00
2018-11-13T05:03:19.530Z,29.90
2018-11-13T05:03:57.484Z,29.90
2018-11-13T05:04:35.378Z,29.90
2018-11-13T05:05:14.527Z,30.00
2018-11-13T05:05:52.467Z,29.90
2018-11-13T05:06:30.821Z,30.00
2018-11-13T05:07:10.084Z,29.90
2018-11-13T05:07:49.962Z,29.90
2018-11-13T05:08:29.222Z,29.90
2018-11-13T05:09:07.504Z,29.90
2018-11-13T05:09:45.285Z,29.90
2018-11-13T05:10:23.170Z,29.90
2018-11-13T05:11:01.240Z,29.90
2018-11-13T05:11:39.299Z,29.90
2018-11-13T05:12:17.447Z,29.90
2018-11-13T05:12:55.328Z,29.90
2018-11-13T05:13:33.197Z,29.90
2018-11-13T05:14:11.293Z,29.90
2018-11-13T05:14:49.544Z,29.90
2018-11-13T05:15:27.304Z,29.90
2018-11-13T05:16:05.278Z,29.90
2018-11-13T05:16:43.208Z,29.90
2018-11-13T05:17:21.230Z,29.90
2018-11-13T05:17:59.191Z,29.90
2018-11-13T05:18:37.091Z,29.90
2018-11-13T05:19:14.978Z,30.00
2018-11-13T05:19:52.981Z,29.90
2018-11-13T05:20:30.873Z,30.00
2018-11-13T05:21:08.958Z,29.90
2018-11-13T05:21:47.104Z,29.90
2018-11-13T05:22:24.975Z,30.00
2018-11-13T05:23:03.735Z,30.00
2018-11-13T05:23:42.916Z,29.90
2018-11-13T05:24:20.935Z,30.00
2018-11-13T05:24:59.650Z,30.00
2018-11-13T05:25:38.040Z,30.00
2018-11-13T05:26:15.967Z,30.00
2018-11-13T05:26:53.923Z,30.00
2018-11-13T05:27:31.811Z,30.00
2018-11-13T05:28:09.802Z,30.00
2018-11-13T05:28:47.706Z,30.00
2018-11-13T05:29:25.593Z,30.00
2018-11-13T05:30:03.498Z,30.10
2018-11-13T05:30:41.677Z,30.00
2018-11-13T05:31:19.567Z,30.10
2018-11-13T05:31:57.662Z,30.00
2018-11-13T05:32:35.638Z,30.00
2018-11-13T05:33:13.687Z,30.10
2018-11-13T05:33:51.535Z,30.10
2018-11-13T05:34:29.635Z,30.10
2018-11-13T05:35:07.963Z,30.10
2018-11-13T05:35:46.039Z,30.10
2018-11-13T05:36:24.254Z,30.10
2018-11-13T05:37:02.215Z,30.10
2018-11-13T05:37:40.441Z,30.10
2018-11-13T05:38:18.377Z,30.10
2018-11-13T05:38:56.323Z,30.10
2018-11-13T05:39:34.431Z,30.10
2018-11-13T05:40:15.834Z,30.10
2018-11-13T05:40:53.758Z,30.10
2018-11-13T05:41:31.613Z,30.10
2018-11-13T05:42:09.759Z,30.10
2018-11-13T05:42:47.589Z,30.20
2018-11-13T05:43:25.491Z,30.20
2018-11-13T05:44:03.332Z,30.10
2018-11-13T05:44:41.432Z,30.10
2018-11-13T05:45:20.860Z,30.10
2018-11-13T05:45:58.702Z,30.10
2018-11-13T05:46:36.691Z,30.10
2018-11-13T05:47:14.950Z,30.20
2018-11-13T05:47:52.875Z,30.20
2018-11-13T05:48:30.837Z,30.20
2018-11-13T05:49:08.771Z,30.20
2018-11-13T05:49:46.592Z,30.20
2018-11-13T05:50:24.511Z,30.20
2018-11-13T05:51:03.748Z,30.20
2018-11-13T05:51:41.774Z,30.20
2018-11-13T05:52:19.682Z,30.20
2018-11-13T05:52:57.673Z,30.20
2018-11-13T05:53:35.829Z,30.20
2018-11-13T05:54:14.688Z,30.20
2018-11-13T05:54:52.524Z,30.20
2018-11-13T05:55:30.579Z,30.20
2018-11-13T05:56:08.435Z,30.20
2018-11-13T05:56:46.256Z,30.30
2018-11-13T05:57:24.116Z,30.30
2018-11-13T05:58:02.156Z,30.30
2018-11-13T05:58:40.023Z,30.30
2018-11-13T05:59:18.092Z,30.30
2018-11-13T05:59:57.046Z,30.30
2018-11-13T06:00:37.114Z,30.30
2018-11-13T06:01:15.335Z,30.30
2018-11-13T06:01:53.255Z,30.30
2018-11-13T06:02:31.179Z,30.30
2018-11-13T06:03:09.011Z,30.30
2018-11-13T06:03:46.884Z,30.30
2018-11-13T06:04:24.785Z,30.30
2018-11-13T06:05:02.818Z,30.30
2018-11-13T06:05:40.695Z,30.30
2018-11-13T06:06:18.591Z,30.30
2018-11-13T06:06:56.587Z,30.30
2018-11-13T06:07:34.470Z,30.30
2018-11-13T06:08:12.363Z,30.30
2018-11-13T06:08:50.303Z,30.30
2018-11-13T06:09:28.180Z,30.30
2018-11-13T06:10:06.111Z,30.30
2018-11-13T06:10:44.288Z,30.30
2018-11-13T06:11:22.112Z,30.30
2018-11-13T06:12:00.077Z,30.30
2018-11-13T06:12:38.034Z,30.30
2018-11-13T06:13:16.167Z,30.30
2018-11-13T06:13:54.758Z,30.30
2018-11-13T06:14:32.610Z,30.30
2018-11-13T06:15:11.164Z,30.30
2018-11-13T06:15:49.305Z,30.30
2018-11-13T06:16:27.312Z,30.30
2018-11-13T06:17:05.372Z,30.30
2018-11-13T06:17:43.319Z,30.40
2018-11-13T06:18:21.388Z,30.40
2018-11-13T06:18:59.386Z,30.40
2018-11-13T06:19:37.272Z,30.40
2018-11-13T06:20:16.760Z,30.40
2018-11-13T06:20:54.852Z,30.40
2018-11-13T06:21:32.703Z,30.40
2018-11-13T06:22:10.543Z,30.40
2018-11-13T06:22:48.402Z,30.40
2018-11-13T06:23:26.542Z,30.40
2018-11-13T06:24:04.836Z,30.40
2018-11-13T06:24:42.727Z,30.40
2018-11-13T06:25:20.834Z,30.40
2018-11-13T06:25:58.842Z,30.40
2018-11-13T06:26:36.686Z,30.40
2018-11-13T06:27:14.515Z,30.40
2018-11-13T06:27:58.393Z,30.40
2018-11-13T06:28:36.373Z,30.40
2018-11-13T06:29:14.508Z,30.40
2018-11-13T06:29:52.456Z,30.40
2018-11-13T06:30:30.411Z,30.40
2018-11-13T06:31:08.303Z,30.40
2018-11-13T06:31:46.716Z,30.40
2018-11-13T06:32:24.537Z,30.40
2018-11-13T06:33:02.627Z,30.40
2018-11-13T06:33:40.463Z,30.40
2018-11-13T06:34:18.425Z,30.40
2018-11-13T06:34:56.379Z,30.40
2018-11-13T06:35:34.604Z,30.40
2018-11-13T06:36:12.614Z,30.40
2018-11-13T06:36:50.641Z,30.40
2018-11-13T06:37:28.776Z,30.40
2018-11-13T06:38:06.637Z,30.40
2018-11-13T06:38:44.635Z,30.40
2018-11-13T06:39:22.895Z,30.40
2018-11-13T06:40:00.727Z,30.50
2018-11-13T06:40:38.731Z,30.40
2018-11-13T06:41:16.678Z,30.40
2018-11-13T06:41:54.509Z,30.40
2018-11-13T06:42:32.920Z,30.40
2018-11-13T06:43:11.003Z,30.40
2018-11-13T06:43:48.926Z,30.40
2018-11-13T06:44:26.931Z,30.40
2018-11-13T06:45:04.891Z,30.40
2018-11-13T06:45:42.843Z,30.40
2018-11-13T06:46:20.799Z,30.40
2018-11-13T06:46:58.882Z,30.40
2018-11-13T06:47:37.136Z,30.40
2018-11-13T06:48:15.488Z,30.40
2018-11-13T06:48:53.325Z,30.50
2018-11-13T06:49:31.291Z,30.40
2018-11-13T06:50:10.166Z,30.40
2018-11-13T06:50:48.074Z,30.40
2018-11-13T06:51:26.071Z,30.40
2018-11-13T06:52:05.278Z,30.50
2018-11-13T06:52:43.490Z,30.50
2018-11-13T06:53:21.536Z,30.40
2018-11-13T06:54:08.383Z,30.50
2018-11-13T06:55:11.355Z,30.50
2018-11-13T06:55:52.337Z,30.50
2018-11-13T06:56:31.278Z,30.50
2018-11-13T06:57:09.186Z,30.50
2018-11-13T06:57:47.618Z,30.50
2018-11-13T06:58:25.676Z,30.50
2018-11-13T06:59:03.750Z,30.50
2018-11-13T06:59:41.680Z,30.50
2018-11-13T07:00:19.641Z,30.50
2018-11-13T07:00:57.547Z,30.50
2018-11-13T07:01:36.436Z,30.50
2018-11-13T07:02:14.297Z,30.40
2018-11-13T07:02:52.390Z,30.50
2018-11-13T07:03:30.246Z,30.50
2018-11-13T07:04:08.611Z,30.40
2018-11-13T07:04:46.692Z,30.50
2018-11-13T07:05:24.711Z,30.50
2018-11-13T07:06:02.655Z,30.50
2018-11-13T07:06:40.544Z,30.50
2018-11-13T07:07:18.484Z,30.50
2018-11-13T07:07:56.473Z,30.50
2018-11-13T07:08:34.409Z,30.50
2018-11-13T07:09:12.598Z,30.50
2018-11-13T07:09:50.619Z,30.50
2018-11-13T07:10:29.426Z,30.50
2018-11-13T07:11:07.273Z,30.50
2018-11-13T07:11:45.430Z,30.50
2018-11-13T07:12:23.576Z,30.50
2018-11-13T07:13:02.627Z,30.50
2018-11-13T07:13:40.656Z,30.60
2018-11-13T07:14:18.777Z,30.60
2018-11-13T07:14:56.816Z,30.60
2018-11-13T07:15:37.401Z,30.60
2018-11-13T07:16:15.258Z,30.50
2018-11-13T07:16:53.371Z,30.50
2018-11-13T07:17:31.293Z,30.50
2018-11-13T07:18:09.379Z,30.50
2018-11-13T07:18:47.184Z,30.50
2018-11-13T07:19:24.998Z,30.60
2018-11-13T07:20:03.179Z,30.60
2018-11-13T07:20:41.062Z,30.60
2018-11-13T07:21:19.164Z,30.60
2018-11-13T07:21:57.919Z,30.60
2018-11-13T07:22:36.137Z,30.60
2018-11-13T07:23:57.396Z,30.60
2018-11-13T07:24:35.303Z,30.60
2018-11-13T07:25:14.256Z,30.60
2018-11-13T07:25:52.592Z,30.60
2018-11-13T07:26:30.473Z,30.60
2018-11-13T07:27:08.452Z,30.60
2018-11-13T07:27:46.931Z,30.60
2018-11-13T07:28:25.824Z,30.60
2018-11-13T07:29:04.880Z,30.70
2018-11-13T07:29:42.891Z,30.70
2018-11-13T07:30:21.662Z,30.70
2018-11-13T07:30:59.630Z,30.60
2018-11-13T07:31:37.770Z,30.70
2018-11-13T07:32:15.853Z,30.70
2018-11-13T07:32:53.807Z,30.60
2018-11-13T07:33:31.983Z,30.70
2018-11-13T07:34:10.179Z,30.70
2018-11-13T07:34:48.107Z,30.70
2018-11-13T07:35:26.059Z,30.70
2018-11-13T07:36:03.900Z,30.70
2018-11-13T07:36:41.772Z,30.70
2018-11-13T07:37:19.643Z,30.70
2018-11-13T07:38:01.477Z,30.70
2018-11-13T07:38:39.275Z,30.70
2018-11-13T07:39:18.007Z,30.70
2018-11-13T07:39:56.167Z,30.70
2018-11-13T07:40:34.142Z,30.70
2018-11-13T07:41:12.152Z,30.70
2018-11-13T07:41:50.248Z,30.70
2018-11-13T07:42:28.563Z,30.80
2018-11-13T07:43:06.542Z,30.70
2018-11-13T07:43:45.362Z,30.80
2018-11-13T07:44:23.432Z,30.70
2018-11-13T07:45:01.480Z,30.70
2018-11-13T07:45:39.530Z,30.70
2018-11-13T07:46:17.387Z,30.80
2018-11-13T07:46:55.408Z,30.80
2018-11-13T07:47:33.478Z,30.80
2018-11-13T07:48:11.772Z,30.80
2018-11-13T07:48:49.779Z,30.80
2018-11-13T07:49:27.687Z,30.80
2018-11-13T07:50:05.797Z,30.80
2018-11-13T07:50:43.699Z,30.80
2018-11-13T07:51:21.737Z,30.70
2018-11-13T07:51:59.716Z,30.80
2018-11-13T07:52:37.821Z,30.80
2018-11-13T07:53:15.838Z,30.80
2018-11-13T07:53:53.672Z,30.80
2018-11-13T07:54:31.833Z,30.80
2018-11-13T07:55:10.234Z,30.80
2018-11-13T07:55:48.336Z,30.80
2018-11-13T07:56:26.249Z,30.80
2018-11-13T07:57:04.100Z,30.80
2018-11-13T07:57:41.953Z,30.80
2018-11-13T07:58:20.328Z,30.80
2018-11-13T07:58:58.216Z,30.80
2018-11-13T07:59:36.311Z,30.80
2018-11-13T08:00:18.217Z,30.80
2018-11-13T08:00:56.583Z,30.80
2018-11-13T08:01:34.470Z,30.80
2018-11-13T08:02:12.846Z,30.80
2018-11-13T08:02:51.996Z,30.80
2018-11-13T08:03:34.835Z,30.80
2018-11-13T08:04:12.714Z,30.80
2018-11-13T08:04:50.546Z,30.80
2018-11-13T08:05:28.552Z,30.80
2018-11-13T08:06:07.210Z,30.80
2018-11-13T08:06:45.209Z,30.80
2018-11-13T08:07:23.213Z,30.80
2018-11-13T08:08:01.298Z,30.80
2018-11-13T08:08:39.163Z,30.80
2018-11-13T08:09:17.028Z,30.80
2018-11-13T08:09:55.765Z,30.80
2018-11-13T08:10:33.603Z,30.80
2018-11-13T08:11:11.844Z,30.80
2018-11-13T08:11:49.698Z,30.80
2018-11-13T08:12:35.219Z,30.80
2018-11-13T08:13:13.597Z,30.80
2018-11-13T08:13:51.725Z,30.80
2018-11-13T08:14:29.743Z,30.80